createdAt,value
2022-09-23T00:02:24.748Z,8.06
2022-09-23T00:05:26.586Z,8.04
2022-09-23T00:08:28.526Z,8.10
2022-09-23T00:11:30.200Z,8.01
2022-09-23T00:14:33.197Z,7.98
2022-09-23T00:17:34.828Z,7.94
2022-09-23T00:20:36.523Z,7.94
2022-09-23T00:23:38.500Z,7.94
2022-09-23T00:26:40.137Z,7.86
2022-09-23T00:29:43.140Z,7.77
2022-09-23T00:32:44.906Z,7.78
2022-09-23T00:35:46.676Z,7.61
2022-09-23T00:38:48.378Z,7.72
2022-09-23T00:41:50.092Z,7.67
2022-09-23T00:44:54.287Z,7.78
2022-09-23T00:47:58.041Z,7.61
2022-09-23T00:50:59.663Z,7.48
2022-09-23T00:54:02.167Z,7.43
2022-09-23T00:57:05.022Z,7.42
2022-09-23T01:00:09.066Z,7.44
2022-09-23T01:03:10.694Z,7.48
2022-09-23T01:06:12.740Z,7.44
2022-09-23T01:09:14.325Z,7.43
2022-09-23T01:12:23.887Z,7.51
2022-09-23T01:15:32.982Z,7.51
2022-09-23T01:18:39.478Z,7.49
2022-09-23T01:21:46.138Z,7.49
2022-09-23T01:24:52.495Z,7.53
2022-09-23T01:28:04.428Z,7.48
2022-09-23T01:31:10.035Z,7.46
2022-09-23T01:34:14.799Z,7.40
2022-09-23T01:37:21.557Z,7.33
2022-09-23T01:40:25.630Z,7.24
2022-09-23T01:43:31.239Z,7.28
2022-09-23T01:46:38.302Z,7.23
2022-09-23T01:49:43.806Z,7.29
2022-09-23T01:52:46.997Z,7.18
2022-09-23T01:55:51.285Z,7.26
2022-09-23T01:58:56.830Z,7.21
2022-09-23T02:02:02.936Z,7.15
2022-09-23T02:05:07.302Z,7.13
2022-09-23T02:08:11.016Z,7.15
2022-09-23T02:11:13.616Z,7.17
2022-09-23T02:14:19.428Z,7.15
2022-09-23T02:17:24.461Z,7.11
2022-09-23T02:20:28.334Z,7.07
2022-09-23T02:23:32.340Z,7.02
2022-09-23T02:26:35.378Z,7.00
2022-09-23T02:29:40.761Z,7.01
2022-09-23T02:32:49.850Z,6.94
2022-09-23T02:35:53.969Z,6.91
2022-09-23T02:38:58.143Z,6.99
2022-09-23T02:42:02.175Z,6.87
2022-09-23T02:45:04.201Z,6.77
2022-09-23T02:48:09.700Z,6.84
2022-09-23T02:51:12.775Z,6.77
2022-09-23T02:54:16.106Z,6.79
2022-09-23T02:57:17.842Z,6.82
2022-09-23T03:00:19.479Z,6.75
2022-09-23T03:03:29.809Z,6.67
2022-09-23T03:06:35.177Z,6.69
2022-09-23T03:09:40.267Z,6.60
2022-09-23T03:12:46.047Z,6.35
2022-09-23T03:15:50.622Z,6.55
2022-09-23T03:18:57.304Z,6.55
2022-09-23T03:22:00.801Z,6.57
2022-09-23T03:25:06.447Z,6.53
2022-09-23T03:28:08.674Z,6.56
2022-09-23T03:31:11.567Z,6.58
2022-09-23T03:34:16.246Z,6.47
2022-09-23T03:37:20.671Z,6.44
2022-09-23T03:40:24.089Z,6.34
2022-09-23T03:43:25.832Z,6.23
2022-09-23T03:46:27.654Z,6.01
2022-09-23T03:49:33.916Z,6.08
2022-09-23T03:52:35.560Z,6.19
2022-09-23T03:55:37.147Z,6.19
2022-09-23T03:58:38.736Z,6.22
2022-09-23T04:01:40.434Z,6.24
2022-09-23T04:04:43.459Z,6.23
2022-09-23T04:07:45.069Z,6.20
2022-09-23T04:10:47.418Z,6.15
2022-09-23T04:13:50.038Z,6.14
2022-09-23T04:16:51.998Z,5.98
2022-09-23T04:19:55.088Z,5.96
2022-09-23T04:22:56.689Z,5.91
2022-09-23T04:25:58.241Z,6.00
2022-09-23T04:28:59.975Z,5.94
2022-09-23T04:32:01.867Z,5.91
2022-09-23T04:35:05.848Z,6.01
2022-09-23T04:38:07.636Z,5.99
2022-09-23T04:41:09.319Z,6.00
2022-09-23T04:44:11.130Z,6.01
2022-09-23T04:47:12.872Z,6.03
2022-09-23T04:50:15.900Z,5.90
2022-09-23T04:53:17.524Z,5.95
2022-09-23T04:56:20.442Z,5.96
2022-09-23T04:59:22.075Z,5.91
2022-09-23T05:02:23.769Z,5.86
2022-09-23T05:05:27.007Z,5.78
2022-09-23T05:08:28.768Z,5.90
2022-09-23T05:11:30.928Z,5.78
2022-09-23T05:14:32.660Z,5.86
2022-09-23T05:17:34.250Z,5.82
2022-09-23T05:20:37.320Z,5.81
2022-09-23T05:23:39.374Z,5.78
2022-09-23T05:26:41.109Z,5.78
2022-09-23T05:29:42.727Z,5.75
2022-09-23T05:32:44.405Z,5.77
2022-09-23T05:35:48.331Z,5.81
2022-09-23T05:38:50.501Z,5.66
2022-09-23T05:41:52.097Z,5.50
2022-09-23T05:44:54.110Z,5.54
2022-09-23T05:47:55.704Z,5.42
2022-09-23T05:50:58.945Z,5.55
2022-09-23T05:54:00.892Z,5.48
2022-09-23T05:57:04.881Z,5.55
2022-09-23T06:00:07.582Z,5.61
2022-09-23T06:03:12.277Z,5.53
2022-09-23T06:06:15.980Z,5.51
2022-09-23T06:09:17.586Z,5.60
2022-09-23T06:12:19.479Z,5.73
2022-09-23T06:15:21.113Z,5.50
2022-09-23T06:18:22.719Z,5.52
2022-09-23T06:21:25.889Z,5.58
2022-09-23T06:24:31.313Z,5.73
2022-09-23T06:27:33.309Z,5.86
2022-09-23T06:30:34.990Z,5.93
2022-09-23T06:33:37.422Z,6.00
2022-09-23T06:36:44.428Z,6.11
2022-09-23T06:39:46.489Z,6.14
2022-09-23T06:42:52.107Z,6.22
2022-09-23T06:45:54.471Z,6.24
2022-09-23T06:48:56.073Z,6.28
2022-09-23T06:51:59.083Z,6.29
2022-09-23T06:55:00.719Z,6.35
2022-09-23T06:58:02.383Z,6.39
2022-09-23T07:01:05.793Z,6.41
2022-09-23T07:04:08.375Z,6.42
2022-09-23T07:07:11.460Z,6.44
2022-09-23T07:10:13.090Z,6.66
2022-09-23T07:13:16.371Z,6.52
2022-09-23T07:16:18.238Z,6.60
2022-09-23T07:19:20.028Z,6.58
2022-09-23T07:22:23.224Z,6.63
2022-09-23T07:25:24.821Z,6.68
2022-09-23T07:28:26.426Z,6.68
2022-09-23T07:31:38.471Z,6.72
2022-09-23T07:34:41.593Z,6.61
2022-09-23T07:37:44.857Z,6.69
2022-09-23T07:40:46.515Z,6.77
2022-09-23T07:43:48.195Z,6.84
2022-09-23T07:46:49.985Z,6.86
2022-09-23T07:49:51.687Z,6.69
2022-09-23T07:52:54.664Z,6.70
2022-09-23T07:55:56.740Z,6.81
2022-09-23T07:58:58.362Z,6.88
2022-09-23T08:02:00.103Z,6.95
2022-09-23T08:05:01.845Z,6.95
2022-09-23T08:08:04.924Z,7.01
2022-09-23T08:11:08.157Z,7.11
2022-09-23T08:14:10.077Z,7.30
2022-09-23T08:17:12.350Z,7.36
2022-09-23T08:20:14.222Z,7.39
2022-09-23T08:23:17.290Z,7.47
2022-09-23T08:26:22.026Z,7.60
2022-09-23T08:29:24.789Z,7.74
2022-09-23T08:32:26.395Z,7.81
2022-09-23T08:35:28.115Z,7.92
2022-09-23T08:38:31.250Z,7.95
2022-09-23T08:41:39.032Z,8.07
2022-09-23T08:44:46.817Z,8.04
2022-09-23T08:47:51.611Z,8.19
2022-09-23T08:50:56.292Z,8.32
2022-09-23T08:53:59.719Z,8.34
2022-09-23T08:57:02.501Z,8.39
2022-09-23T09:00:04.596Z,8.55
2022-09-23T09:03:16.941Z,8.63
2022-09-23T09:06:20.178Z,8.65
2022-09-23T09:09:25.906Z,8.68
2022-09-23T09:12:32.757Z,8.73
2022-09-23T09:15:37.004Z,8.93
2022-09-23T09:18:40.440Z,9.06
2022-09-23T09:21:43.801Z,9.14
2022-09-23T09:24:48.691Z,9.31
2022-09-23T09:27:51.333Z,9.40
2022-09-23T09:30:54.029Z,9.51
2022-09-23T09:34:00.365Z,9.55
2022-09-23T09:37:06.822Z,9.52
2022-09-23T09:40:13.361Z,9.61
2022-09-23T09:43:16.908Z,9.75
2022-09-23T09:46:26.679Z,10.09
2022-09-23T09:49:31.180Z,10.13
2022-09-23T09:52:33.062Z,10.48
2022-09-23T09:55:36.169Z,10.38
2022-09-23T09:58:44.235Z,10.73
2022-09-23T10:01:45.957Z,10.67
2022-09-23T10:04:54.072Z,10.77
2022-09-23T10:07:55.755Z,10.86
2022-09-23T10:11:01.644Z,10.85
2022-09-23T10:14:04.780Z,11.09
2022-09-23T10:17:07.225Z,11.27
2022-09-23T10:20:10.002Z,11.18
2022-09-23T10:23:15.677Z,11.29
2022-09-23T10:26:26.309Z,11.35
2022-09-23T10:29:31.575Z,11.34
2022-09-23T10:32:33.859Z,11.42
2022-09-23T10:35:35.555Z,11.74
2022-09-23T10:38:37.359Z,11.76
2022-09-23T10:41:44.707Z,11.99
2022-09-23T10:44:56.245Z,11.98
2022-09-23T10:48:01.840Z,12.24
2022-09-23T10:51:06.522Z,12.19
2022-09-23T10:54:14.664Z,12.20
2022-09-23T10:57:25.177Z,12.25
2022-09-23T11:00:35.295Z,12.37
2022-09-23T11:03:50.794Z,12.32
2022-09-23T11:07:01.438Z,12.39
2022-09-23T11:10:35.241Z,12.52
2022-09-23T11:13:54.199Z,12.42
2022-09-23T11:17:07.537Z,12.46
2022-09-23T11:20:16.677Z,12.65
2022-09-23T11:23:33.156Z,12.77
2022-09-23T11:26:39.538Z,12.83
2022-09-23T11:29:55.460Z,13.09
2022-09-23T11:33:16.244Z,13.06
2022-09-23T11:36:22.036Z,13.11
2022-09-23T11:39:28.127Z,13.24
2022-09-23T11:42:31.538Z,13.46
2022-09-23T11:45:36.814Z,13.27
2022-09-23T11:48:43.004Z,13.34
2022-09-23T11:51:50.274Z,13.42
2022-09-23T11:54:54.664Z,13.48
2022-09-23T11:57:57.710Z,13.66
2022-09-23T12:01:04.212Z,13.80
2022-09-23T12:04:18.041Z,13.83
2022-09-23T12:07:24.391Z,13.94
2022-09-23T12:10:35.955Z,13.93
2022-09-23T12:13:42.829Z,14.07
2022-09-23T12:16:55.288Z,14.48
2022-09-23T12:20:03.399Z,14.58
2022-09-23T12:23:13.018Z,14.71
2022-09-23T12:26:16.778Z,14.55
2022-09-23T12:29:18.697Z,14.71
2022-09-23T12:32:22.049Z,14.68
2022-09-23T12:35:24.892Z,14.70
2022-09-23T12:38:32.329Z,15.00
2022-09-23T12:41:36.580Z,15.28
2022-09-23T12:44:39.588Z,15.35
2022-09-23T12:47:42.721Z,15.39
2022-09-23T12:50:48.430Z,15.67
2022-09-23T12:53:54.984Z,15.57
2022-09-23T12:57:06.231Z,15.68
2022-09-23T13:00:15.152Z,15.74
2022-09-23T13:03:18.225Z,15.74
2022-09-23T13:06:19.882Z,15.85
2022-09-23T13:09:22.756Z,16.10
2022-09-23T13:12:28.530Z,16.09
2022-09-23T13:15:31.206Z,16.02
2022-09-23T13:18:56.582Z,16.19
2022-09-23T13:22:00.906Z,16.17
2022-09-23T13:25:09.929Z,16.13
2022-09-23T13:28:23.602Z,15.92
2022-09-23T13:31:25.296Z,16.01
2022-09-23T13:34:30.053Z,16.08
2022-09-23T13:37:40.759Z,16.06
2022-09-23T13:40:43.668Z,16.17
2022-09-23T13:43:47.883Z,16.09
2022-09-23T13:46:51.633Z,16.16
2022-09-23T13:49:53.710Z,16.25
2022-09-23T13:52:58.153Z,16.29
2022-09-23T13:56:01.427Z,16.26
2022-09-23T13:59:20.214Z,16.26
2022-09-23T14:02:21.872Z,16.26
2022-09-23T14:05:24.475Z,16.38
2022-09-23T14:08:27.890Z,16.30
2022-09-23T14:11:30.919Z,16.41
2022-09-23T14:14:35.116Z,16.49
2022-09-23T14:17:36.898Z,16.49
2022-09-23T14:20:44.861Z,16.54
2022-09-23T14:23:48.015Z,16.54
2022-09-23T14:26:51.999Z,16.57
2022-09-23T14:29:53.751Z,16.57
2022-09-23T14:32:55.428Z,16.55
2022-09-23T14:36:02.604Z,16.57
2022-09-23T14:39:07.164Z,16.62
2022-09-23T14:42:09.689Z,16.57
2022-09-23T14:45:13.864Z,16.58
2022-09-23T14:48:17.338Z,16.64
2022-09-23T14:51:19.006Z,16.48
2022-09-23T14:54:29.082Z,16.43
2022-09-23T14:57:30.794Z,16.19
2022-09-23T15:00:32.521Z,16.17
2022-09-23T15:03:34.212Z,16.02
2022-09-23T15:06:36.428Z,16.19
2022-09-23T15:09:40.038Z,16.15
2022-09-23T15:12:42.228Z,16.14
2022-09-23T15:15:44.522Z,16.24
2022-09-23T15:18:53.123Z,16.06
2022-09-23T15:21:54.916Z,15.81
2022-09-23T15:25:11.648Z,15.85
2022-09-23T15:28:17.929Z,16.00
2022-09-23T15:31:20.736Z,15.97
2022-09-23T15:34:22.412Z,15.99
2022-09-23T15:37:24.086Z,16.22
2022-09-23T15:40:27.975Z,16.22
2022-09-23T15:43:29.703Z,16.35
2022-09-23T15:46:31.403Z,16.25
2022-09-23T15:49:34.312Z,16.17
2022-09-23T15:52:35.935Z,16.22
2022-09-23T15:55:38.960Z,16.35
2022-09-23T15:58:40.571Z,16.51
2022-09-23T16:01:42.878Z,16.65
2022-09-23T16:04:44.670Z,16.88
2022-09-23T16:07:46.389Z,16.88
2022-09-23T16:10:49.926Z,16.93
2022-09-23T16:13:51.913Z,16.65
2022-09-23T16:16:53.722Z,16.80
2022-09-23T16:19:55.497Z,16.74
2022-09-23T16:22:58.018Z,16.50
2022-09-23T16:26:02.583Z,16.52
2022-09-23T16:29:04.228Z,16.47
2022-09-23T16:32:05.958Z,16.32
2022-09-23T16:35:08.441Z,16.17
2022-09-23T16:38:10.135Z,15.95
2022-09-23T16:41:13.148Z,15.83
2022-09-23T16:44:14.768Z,15.71
2022-09-23T16:47:16.545Z,15.60
2022-09-23T16:50:19.044Z,15.49
2022-09-23T16:53:20.670Z,15.42
2022-09-23T16:56:28.202Z,15.31
2022-09-23T16:59:30.254Z,15.22
2022-09-23T17:02:31.967Z,15.12
2022-09-23T17:05:33.761Z,15.00
2022-09-23T17:08:35.539Z,14.83
2022-09-23T17:11:38.712Z,14.28
2022-09-23T17:14:40.491Z,14.16
2022-09-23T17:17:45.222Z,13.71
2022-09-23T17:20:55.940Z,13.31
2022-09-23T17:23:57.918Z,13.19
2022-09-23T17:27:01.218Z,12.98
2022-09-23T17:30:03.294Z,12.62
2022-09-23T17:33:04.907Z,12.31
2022-09-23T17:36:07.433Z,12.26
2022-09-23T17:39:09.225Z,12.17
2022-09-23T17:42:12.382Z,12.14
2022-09-23T17:45:14.057Z,12.05
2022-09-23T17:48:15.959Z,11.92
2022-09-23T17:51:18.137Z,11.92
2022-09-23T17:54:19.831Z,11.95
2022-09-23T17:57:22.954Z,11.99
2022-09-23T18:00:24.742Z,11.97
2022-09-23T18:03:27.509Z,11.99
2022-09-23T18:06:29.949Z,11.61
2022-09-23T18:09:31.652Z,11.48
2022-09-23T18:12:34.732Z,11.18
2022-09-23T18:15:36.616Z,10.82
2022-09-23T18:18:38.252Z,10.69
2022-09-23T18:21:41.042Z,10.42
2022-09-23T18:24:42.774Z,10.75
2022-09-23T18:27:47.317Z,10.96
2022-09-23T18:30:52.528Z,11.12
2022-09-23T18:33:54.636Z,11.09
2022-09-23T18:36:56.449Z,11.13
2022-09-23T18:39:58.125Z,11.03
2022-09-23T18:43:01.138Z,10.59
2022-09-23T18:46:03.976Z,10.56
2022-09-23T18:49:05.773Z,10.42
2022-09-23T18:52:07.396Z,10.38
2022-09-23T18:55:09.020Z,10.16
2022-09-23T18:58:12.093Z,9.67
2022-09-23T19:01:14.211Z,9.77
2022-09-23T19:04:17.188Z,9.68
2022-09-23T19:07:18.906Z,9.75
2022-09-23T19:10:20.510Z,9.89
2022-09-23T19:13:23.513Z,9.94
2022-09-23T19:16:25.423Z,9.91
2022-09-23T19:19:27.119Z,10.05
2022-09-23T19:22:28.723Z,9.73
2022-09-23T19:25:30.295Z,9.39
2022-09-23T19:28:33.294Z,9.43
2022-09-23T19:31:36.563Z,9.59
2022-09-23T19:34:38.571Z,9.68
2022-09-23T19:37:40.185Z,9.50
2022-09-23T19:40:43.109Z,9.33
2022-09-23T19:43:48.569Z,9.55
2022-09-23T19:46:55.129Z,9.34
2022-09-23T19:49:58.226Z,9.01
2022-09-23T19:52:59.833Z,8.92
2022-09-23T19:56:01.680Z,9.05
2022-09-23T19:59:05.278Z,8.85
2022-09-23T20:02:08.782Z,8.69
2022-09-23T20:05:12.146Z,8.45
2022-09-23T20:08:13.855Z,8.43
2022-09-23T20:11:16.598Z,8.19
2022-09-23T20:14:19.850Z,8.23
2022-09-23T20:17:21.574Z,8.46
2022-09-23T20:20:23.198Z,8.76
2022-09-23T20:23:24.819Z,8.97
2022-09-23T20:26:26.525Z,9.12
2022-09-23T20:29:29.526Z,9.29
2022-09-23T20:32:31.216Z,9.31
2022-09-23T20:35:32.897Z,8.96
2022-09-23T20:38:34.894Z,8.95
2022-09-23T20:41:37.436Z,8.95
2022-09-23T20:44:40.682Z,8.54
2022-09-23T20:47:42.327Z,8.32
2022-09-23T20:50:43.901Z,8.02
2022-09-23T20:53:48.004Z,8.21
2022-09-23T20:56:49.612Z,8.46
2022-09-23T20:59:53.017Z,8.40
2022-09-23T21:02:54.626Z,8.53
2022-09-23T21:05:56.390Z,8.40
2022-09-23T21:08:57.978Z,8.39
2022-09-23T21:11:59.802Z,8.25
2022-09-23T21:15:02.910Z,8.21
2022-09-23T21:18:04.583Z,8.53
2022-09-23T21:21:06.447Z,8.63
2022-09-23T21:24:36.132Z,8.85
2022-09-23T21:27:29.785Z,8.98
2022-09-23T21:30:32.792Z,9.00
2022-09-23T21:33:35.021Z,8.89
2022-09-23T21:36:37.407Z,8.71
2022-09-23T21:39:39.053Z,8.46
2022-09-23T21:42:40.708Z,8.21
2022-09-23T21:45:43.729Z,8.50
2022-09-23T21:48:45.854Z,8.16
2022-09-23T21:51:47.533Z,7.68
2022-09-23T21:54:49.247Z,7.86
2022-09-23T21:57:51.888Z,7.94
2022-09-23T22:00:54.935Z,7.92
2022-09-23T22:03:57.559Z,8.20
2022-09-23T22:06:59.301Z,8.17
2022-09-23T22:10:01.005Z,8.06
2022-09-23T22:13:02.610Z,8.00
2022-09-23T22:16:05.918Z,7.81
2022-09-23T22:19:07.984Z,7.88
2022-09-23T22:22:10.822Z,7.68
2022-09-23T22:25:12.557Z,7.80
2022-09-23T22:28:14.297Z,7.69
2022-09-23T22:31:17.367Z,7.84
2022-09-23T22:34:47.470Z,8.10
2022-09-23T22:37:40.824Z,8.21
2022-09-23T22:40:42.636Z,7.83
2022-09-23T22:43:44.340Z,8.03
2022-09-23T22:46:47.757Z,7.90
2022-09-23T22:49:49.681Z,8.16
2022-09-23T22:52:51.314Z,8.10
2022-09-23T22:56:01.878Z,8.33
2022-09-23T22:59:03.822Z,8.43
2022-09-23T23:02:08.755Z,8.37
2022-09-23T23:05:10.514Z,8.21
2022-09-23T23:08:12.129Z,8.41
2022-09-23T23:11:13.830Z,8.52
2022-09-23T23:14:17.680Z,8.65
2022-09-23T23:17:20.719Z,8.70
2022-09-23T23:20:22.415Z,8.62
2022-09-23T23:23:24.379Z,8.65
2022-09-23T23:26:26.997Z,8.62
2022-09-23T23:29:28.626Z,8.61
2022-09-23T23:32:31.685Z,8.48
2022-09-23T23:35:33.310Z,8.03
2022-09-23T23:38:34.949Z,7.74
2022-09-23T23:41:36.594Z,7.84
2022-09-23T23:44:38.200Z,7.80
2022-09-23T23:47:41.242Z,7.79
2022-09-23T23:50:42.893Z,8.05
2022-09-23T23:53:44.585Z,8.11
2022-09-23T23:56:46.232Z,8.06
2022-09-23T23:59:47.827Z,8.13
